Flight Track Log - Related Links

Times and Time Zones

All times are in EDT time to prevent confusion due to time zone crossing. See the EJA941 flight status page for this flight to view local times or setup timezone preferences in your user account.

Time Position Orientation Groundspeed Altitude Reporting Facility
EDT Latitude Longitude Course Direction KTS MPH feet Rate Location/Type
Sun 06:57:43 PM 41.7667 -87.7833 346° North 179 206 2,200  Level Chicago TRACON
Sun 06:58:37 PM 41.8167 -87.8000 346° North 258 297 3,100 1,000 Climbing Chicago TRACON
Sun 06:59:37 PM 41.8333 -87.7167 75° East 260 299 4,100 1,946 Climbing Chicago TRACON
Sun 07:01:05 PM 41.8033 -87.5653 105° East 287 330 7,900 2,760 Climbing Chicago Center
Sun 07:02:07 PM 41.7942 -87.4561 96° East 294 338 11,000 2,565 Climbing Chicago Center
Sun 07:03:09 PM 41.7850 -87.3433 96° East 302 348 13,200 1,951 Climbing Chicago Center
Sun 07:04:10 PM 41.7756 -87.2158 96° East 340 391 15,000 1,805 Climbing Chicago Center
Sun 07:05:12 PM 41.7669 -87.0850 95° East 352 405 16,900 1,951 Climbing Chicago Center
Sun 07:06:13 PM 41.7250 -86.9597 114° Southeast 369 425 19,000 1,854 Climbing Chicago Center
Sun 07:07:15 PM 41.6744 -86.8067 114° Southeast 376 433 20,700 1,500 Climbing Chicago Center
Sun 07:08:17 PM 41.6322 -86.6908 116° Southeast 388 447 22,100 1,024 Climbing Chicago Center
Sun 07:09:18 PM 41.5808 -86.5497 116° Southeast 415 478 22,800 1,073 Climbing Chicago Center
Sun 07:10:20 PM 41.5178 -86.3744 116° Southeast 436 502 24,300 1,065 Climbing Chicago Center
Sun 07:11:22 PM 41.4639 -86.2239 115° Southeast 450 518 25,000 341 Climbing Chicago Center
Sun 07:12:23 PM 41.3653 -86.1117 139° Southeast 474 545 25,000  Level Chicago Center
Sun 07:13:25 PM 41.2353 -86.0664 165° South 487 560 25,000  Level Chicago Center
Sun 07:14:27 PM 41.1039 -86.0197 165° South 493 567 25,000 537 Level Chicago Center
Sun 07:15:28 PM 40.9842 -85.9322 151° Southeast 496 571 26,100 1,024 Climbing Chicago Center
Sun 07:16:30 PM 40.8419 -85.8286 151° Southeast 490 564 27,100 1,161 Climbing Chicago Center
Sun 07:17:32 PM 40.7244 -85.7458 152° Southeast 485 558 28,500 1,355 Climbing Chicago Center
Sun 07:18:34 PM 40.6186 -85.6686 151° Southeast 480 552 29,900 1,512 Climbing Chicago Center
Sun 07:19:35 PM 40.5008 -85.5836 151° Southeast 482 555 31,600 1,707 Climbing Chicago Center
Sun 07:20:37 PM 40.3592 -85.4822 151° Southeast 483 556 33,400 1,403 Climbing Chicago Center
Sun 07:21:39 PM 40.2403 -85.4017 153° Southeast 483 556 34,500 1,756 Climbing Indianapolis Center
Sun 07:22:40 PM 40.1194 -85.3164 152° Southeast 489 563 37,000 2,098 Climbing Indianapolis Center
Sun 07:23:42 PM 40.0017 -85.2333 152° Southeast 483 556 38,800 1,984 Climbing Indianapolis Center
Sun 07:24:44 PM 39.8842 -85.1528 152° Southeast 478 550 41,100 2,098 Climbing Indianapolis Center
Sun 07:25:45 PM 39.7675 -85.0975 160° South 447 514 43,100 1,415 Climbing Indianapolis Center
Sun 07:26:47 PM 39.6467 -85.0594 166° South 445 512 44,000 919 Climbing Indianapolis Center
Sun 07:27:49 PM 39.5256 -85.0206 166° South 448 516 45,000 488 Climbing Indianapolis Center
Sun 07:28:50 PM 39.3783 -84.9717 166° South 452 520 45,000  Level Indianapolis Center
Sun 07:29:52 PM 39.2506 -84.9297 166° South 468 539 45,000  Level Indianapolis Center
Sun 07:30:54 PM 39.1200 -84.8886 166° South 480 552 45,000  Level Indianapolis Center
Sun 07:31:55 PM 38.9864 -84.8456 166° South 490 564 45,000  Level Indianapolis Center
Sun 07:32:57 PM 38.8517 -84.8022 166° South 497 572 45,000  Level Indianapolis Center
Sun 07:33:58 PM 38.7172 -84.7589 166° South 497 572 45,000  Level Indianapolis Center
Sun 07:35:00 PM 38.5678 -84.7133 167° South 496 571 45,000  Level Indianapolis Center
Sun 07:36:02 PM 38.4347 -84.6692 165° South 495 570 45,000  Level Indianapolis Center
Sun 07:37:03 PM 38.3003 -84.6281 167° South 494 568 45,000  Level Indianapolis Center
Sun 07:38:05 PM 38.1678 -84.5867 166° South 491 565 45,000  Level Indianapolis Center
Sun 07:39:07 PM 38.0356 -84.5428 165° South 490 564 45,000  Level Indianapolis Center
Sun 07:40:08 PM 37.8781 -84.4958 167° South 498 573 45,000  Level Indianapolis Center
Sun 07:41:10 PM 37.7422 -84.4528 166° South 499 574 45,000  Level Indianapolis Center
Sun 07:42:11 PM 37.6083 -84.4114 166° South 499 574 45,000  Level Indianapolis Center
Sun 07:43:13 PM 37.4744 -84.3672 165° South 498 573 45,000  Level Indianapolis Center
Sun 07:44:15 PM 37.3383 -84.3269 167° South 501 577 45,000  Level Indianapolis Center
Sun 07:45:16 PM 37.2039 -84.2858 166° South 498 573 45,000  Level Indianapolis Center
Sun 07:46:18 PM 37.0478 -84.2392 167° South 495 570 45,000  Level Indianapolis Center
Sun 07:47:19 PM 36.9153 -84.1975 166° South 493 567 45,000  Level Indianapolis Center
Sun 07:48:21 PM 36.7814 -84.1575 167° South 495 570 45,000  Level Indianapolis Center
Sun 07:49:22 PM 36.6489 -84.1178 166° South 492 566 45,000  Level Indianapolis Center
Sun 07:50:24 PM 36.5067 -84.0744 166° South 491 565 45,000  Level Indianapolis Center
Sun 07:51:25 PM 36.3733 -84.0350 167° South 491 565 45,000  Level Indianapolis Center
Sun 07:52:27 PM 36.2394 -83.9939 166° South 493 567 45,000  Level Indianapolis Center
Sun 07:53:28 PM 36.1036 -83.9839 177° South 487 560 45,000  Level Indianapolis Center
Sun 07:54:30 PM 35.9672 -83.9778 178° South 487 560 45,000  Level Indianapolis Center
Sun 07:55:31 PM 35.8317 -83.9717 178° South 485 558 45,000  Level Indianapolis Center
Sun 07:56:32 PM 35.6942 -83.9667 178° South 489 563 45,000  Level Indianapolis Center
Sun 07:57:34 PM 35.5589 -83.9600 178° South 485 558 45,000  Level Indianapolis Center
Sun 07:59:00 PM 35.4264 -83.9290 178° South  Level FlightAware Approximate
Sun 07:59:54 PM 35.2258 -83.9344 178° South 489 563 45,000  Level Atlanta Center
Sun 08:00:54 PM 35.0964 -83.8814 161° South 484 557 45,000  Level Atlanta Center
Sun 08:01:54 PM 34.9650 -83.8258 161° South 491 565 45,000  Level Atlanta Center
Sun 08:02:54 PM 34.8375 -83.7706 160° South 498 573 45,000  Level Atlanta Center
Sun 08:03:54 PM 34.7039 -83.7178 162° South 498 573 45,000  Level Atlanta Center
Sun 08:04:54 PM 34.5722 -83.6656 162° South 503 579 45,000  Level Atlanta Center
Sun 08:05:54 PM 34.4406 -83.6131 162° South 498 573 45,000  Level Atlanta Center
Sun 08:06:54 PM 34.3089 -83.5611 162° South 503 579 45,000  Level Atlanta Center
Sun 08:07:54 PM 34.1772 -83.5114 163° South 503 579 45,000  Level Atlanta Center
Sun 08:08:54 PM 34.0433 -83.4597 162° South 503 579 45,000  Level Atlanta Center
Sun 08:09:54 PM 33.9242 -83.4131 162° South 503 579 45,000  Level Atlanta Center
Sun 08:10:54 PM 33.7903 -83.3614 162° South 503 579 45,000  Level Atlanta Center
Sun 08:11:54 PM 33.6586 -83.3125 163° South 503 579 45,000  Level Atlanta Center
Sun 08:12:54 PM 33.5289 -83.2614 162° South 497 572 45,000  Level Atlanta Center
Sun 08:13:54 PM 33.3969 -83.2128 163° South 497 572 45,000  Level Atlanta Center
Sun 08:14:54 PM 33.2631 -83.1644 163° South 504 580 45,000  Level Atlanta Center
Sun 08:15:54 PM 33.1206 -83.1086 162° South 498 573 45,000  Level Atlanta Center
Sun 08:16:54 PM 32.9889 -83.0556 161° South 495 570 45,000  Level Atlanta Center
Sun 08:17:54 PM 32.8589 -83.0075 163° South 495 570 45,000  Level Atlanta Center
Sun 08:18:54 PM 32.7269 -82.9572 162° South 500 575 45,000  Level Atlanta Center
Sun 08:19:54 PM 32.6097 -82.9144 163° South 500 575 45,000  Level Atlanta Center
Sun 08:21:25 PM 32.4108 -82.8361 162° South 498 573 45,000  Level Jacksonville Center
Sun 08:22:25 PM 32.2814 -82.7844 161° South 498 573 45,000  Level Jacksonville Center
Sun 08:23:24 PM 32.1519 -82.7356 162° South 498 573 45,000  Level Jacksonville Center
Sun 08:24:24 PM 32.0203 -82.6892 163° South 498 573 45,000  Level Jacksonville Center
Sun 08:25:24 PM 31.8950 -82.6406 162° South 491 565 45,000  Level Jacksonville Center
Sun 08:26:25 PM 31.7758 -82.5969 163° South 473 544 45,000  Level Jacksonville Center
Sun 08:27:25 PM 31.6544 -82.5533 163° South 459 528 45,000 -450 Level Jacksonville Center
Sun 08:28:25 PM 31.5311 -82.5122 164° South 459 528 44,100 -1,210 Descending Jacksonville Center
Sun 08:29:24 PM 31.3933 -82.5128 180° South 451 519 42,600 -1,613 Descending Jacksonville Center
Sun 08:30:24 PM 31.2786 -82.5231 184° South 435 501 40,900 -1,537 Descending Jacksonville Center
Sun 08:31:25 PM 31.1639 -82.5283 182° South 425 489 39,500 -1,700 Descending Jacksonville Center
Sun 08:32:24 PM 31.0428 -82.5336 182° South 425 489 37,500 -2,017 Descending Jacksonville Center
Sun 08:33:24 PM 30.9194 -82.5389 182° South 430 495 35,500 -1,750 Descending Jacksonville Center
Sun 08:34:24 PM 30.7983 -82.5444 182° South 435 501 34,000 -750 Descending Jacksonville Center
Sun 08:35:24 PM 30.6775 -82.5472 181° South 441 507 34,000  Level Jacksonville Center
Sun 08:36:24 PM 30.5500 -82.5547 183° South 446 513 34,000  Level Jacksonville Center
Sun 08:37:24 PM 30.4228 -82.5603 182° South 451 519 34,000  Level Jacksonville Center
Sun 08:38:24 PM 30.2975 -82.5558 178° South 456 525 34,000  Level Jacksonville Center
Sun 08:39:24 PM 30.1761 -82.5297 169° South 456 525 34,000  Level Jacksonville Center
Sun 08:40:25 PM 30.0531 -82.4967 167° South 456 525 34,000  Level Jacksonville Center
Sun 08:41:24 PM 29.9297 -82.4611 166° South 474 545 34,000 -353 Level Jacksonville Center
Sun 08:42:24 PM 29.7897 -82.4283 169° South 501 577 33,300 -1,750 Descending Jacksonville Center
Sun 08:43:24 PM 29.6350 -82.3908 168° South 515 593 30,500 -2,700 Descending Jacksonville Center
Sun 08:44:24 PM 29.5033 -82.3606 169° South 505 581 27,900 -2,500 Descending Jacksonville Center
Sun 08:45:24 PM 29.3842 -82.3325 168° South 480 552 25,500 -2,350 Descending Jacksonville Center
Sun 08:46:24 PM 29.2589 -82.3189 175° South 462 532 23,200 -2,300 Descending Jacksonville Center
Sun 08:47:24 PM 29.1442 -82.3053 174° South 441 507 20,900 -2,250 Descending Jacksonville Center
Sun 08:48:24 PM 29.0314 -82.2917 174° South 426 490 18,700 -2,100 Descending Jacksonville Center
Sun 08:49:24 PM 28.9353 -82.2806 174° South 407 468 16,700 -1,863 Descending Jacksonville Center
Sun 08:51:34 PM 28.7167 -82.2500 173° South 320 368 12,800 -1,484 Descending Tampa TRACON
Sun 08:52:34 PM 28.6333 -82.2500 180° South 287 330 12,000 -524 Descending Tampa TRACON
Sun 08:53:40 PM 28.5500 -82.2667 190° South 295 339 11,700 -750 Descending Tampa TRACON
Sun 08:54:34 PM 28.5167 -82.3500 246° West 291 335 10,500 -850 Descending Tampa TRACON
Sun 08:55:40 PM 28.4667 -82.4167 230° Southwest 286 329 10,000 -190 Descending Tampa TRACON
Sun 08:56:40 PM 28.4167 -82.5000 236° Southwest 284 327 10,100 -600 Climbing Tampa TRACON
Sun 08:57:40 PM 28.3833 -82.5833 246° West 287 330 8,800 -1,650 Descending Tampa TRACON
Sun 08:58:40 PM 28.3333 -82.6500 230° Southwest 289 333 6,800 -1,474 Descending Tampa TRACON
Sun 08:59:34 PM 28.2833 -82.7000 221° Southwest 286 329 6,000 -1,158 Descending Tampa TRACON
Sun 09:00:34 PM 28.2167 -82.7167 192° South 273 314 4,600 -1,450 Descending Tampa TRACON
Sun 09:01:34 PM 28.1333 -82.7333 190° South 262 302 3,100 -900 Descending Tampa TRACON
Sun 09:02:34 PM 28.0833 -82.7167 164° South 222 255 2,800 -650 Descending Tampa TRACON
Sun 09:03:34 PM 28.0167 -82.7000 168° South 211 243 1,800 -900 Descending Tampa TRACON
Sun 09:04:34 PM 27.9667 -82.7000 180° South 138 159 1,000 -700 Descending Tampa TRACON
Sun 09:05:34 PM 27.9333 -82.7000 180° South 130 150 400 -600 Descending Tampa TRACON
Sun 09:07:00 PM 27.9100 -82.6874 171° South  Level Estimated
Sun 09:14:00 PM 27.9100 -82.6874 171° South  Level Estimated
Sun 09:15:00 PM 27.9100 -82.6874 171° South  Level Estimated

Login

Don't have an account? Register now (free) for customized features, flight alerts, and more!